createdAt,value
2022-10-23T00:00:42.848Z,17.63
2022-10-23T00:06:11.604Z,10.77
2022-10-23T00:11:41.516Z,6.63
2022-10-23T00:17:12.775Z,7.82
2022-10-23T00:22:41.164Z,11.25
2022-10-23T00:28:10.566Z,4.60
2022-10-23T00:33:41.313Z,8.05
2022-10-23T00:39:10.030Z,3.92
2022-10-23T00:45:16.580Z,4.10
2022-10-23T00:50:49.223Z,6.00
2022-10-23T00:56:18.413Z,5.60
2022-10-23T01:01:48.353Z,3.92
2022-10-23T01:07:26.106Z,6.80
2022-10-23T01:13:04.573Z,5.32
2022-10-23T01:18:41.281Z,6.47
2022-10-23T01:24:20.582Z,6.68
2022-10-23T01:30:01.158Z,7.85
2022-10-23T01:35:38.972Z,9.55
2022-10-23T01:41:12.520Z,5.63
2022-10-23T01:46:44.954Z,7.32
2022-10-23T01:52:15.670Z,7.35
2022-10-23T01:57:49.521Z,9.70
2022-10-23T02:03:19.679Z,7.22
2022-10-23T02:08:48.665Z,12.45
2022-10-23T02:14:21.688Z,10.27
2022-10-23T02:19:59.396Z,8.93
2022-10-23T02:25:34.018Z,8.55
2022-10-23T02:31:05.702Z,5.75
2022-10-23T02:36:36.661Z,7.05
2022-10-23T02:42:12.445Z,8.55
2022-10-23T02:47:55.181Z,8.30
2022-10-23T02:53:34.413Z,7.85
2022-10-23T02:59:10.509Z,7.83
2022-10-23T03:04:43.045Z,9.65
2022-10-23T03:10:14.412Z,8.73
2022-10-23T03:15:44.583Z,7.63
2022-10-23T03:21:16.257Z,8.10
2022-10-23T03:26:46.560Z,8.10
2022-10-23T03:32:15.337Z,13.20
2022-10-23T03:37:44.746Z,7.28
2022-10-23T03:43:15.966Z,10.48
2022-10-23T03:48:45.820Z,10.18
2022-10-23T03:54:14.286Z,15.53
2022-10-23T03:59:44.890Z,9.70
2022-10-23T04:05:09.548Z,12.50
2022-10-23T04:10:34.888Z,14.38
2022-10-23T04:16:01.211Z,15.07
2022-10-23T04:21:24.773Z,19.90
2022-10-23T04:26:48.749Z,16.63
2022-10-23T04:32:14.239Z,15.43
2022-10-23T04:37:41.967Z,15.57
2022-10-23T04:43:06.804Z,14.60
2022-10-23T04:48:37.151Z,8.27
2022-10-23T04:54:20.075Z,10.60
2022-10-23T05:00:19.567Z,9.68
2022-10-23T05:05:55.773Z,10.98
2022-10-23T05:11:39.325Z,6.97
2022-10-23T05:17:10.634Z,7.85
2022-10-23T05:22:40.340Z,11.43
2022-10-23T05:28:08.902Z,9.82
2022-10-23T05:33:34.007Z,12.50
2022-10-23T05:39:00.228Z,13.45
2022-10-23T05:44:25.981Z,10.15
2022-10-23T05:50:06.880Z,9.60
2022-10-23T05:56:09.756Z,11.38
2022-10-23T06:01:42.324Z,7.07
2022-10-23T06:07:07.452Z,5.63
2022-10-23T06:12:33.924Z,5.72
2022-10-23T06:18:01.970Z,5.10
2022-10-23T06:23:28.909Z,3.28
2022-10-23T06:29:17.040Z,3.88
2022-10-23T06:34:41.089Z,14.15
2022-10-23T06:40:07.945Z,2.78
2022-10-23T06:46:01.899Z,4.55
2022-10-23T06:51:58.193Z,3.42
2022-10-23T06:57:22.035Z,3.00
2022-10-23T07:02:48.001Z,3.30
2022-10-23T07:08:14.255Z,6.53
2022-10-23T07:13:41.091Z,6.90
2022-10-23T07:19:15.884Z,6.47
2022-10-23T07:25:09.490Z,9.52
2022-10-23T07:30:36.034Z,8.95
2022-10-23T07:36:02.597Z,6.45
2022-10-23T07:41:27.414Z,6.70
2022-10-23T07:46:51.973Z,8.15
2022-10-23T07:52:18.361Z,7.00
2022-10-23T07:58:06.390Z,7.33
2022-10-23T08:03:38.099Z,7.38
2022-10-23T08:09:06.605Z,5.40
2022-10-23T08:14:35.253Z,5.85
2022-10-23T08:19:59.795Z,4.47
2022-10-23T08:30:57.696Z,4.40
2022-10-23T08:36:25.102Z,3.53
2022-10-23T08:41:52.625Z,3.20
2022-10-23T08:47:23.997Z,2.70
2022-10-23T08:53:06.168Z,2.03
2022-10-23T08:58:38.669Z,3.53
2022-10-23T09:04:04.940Z,3.53
2022-10-23T09:09:47.859Z,2.83
2022-10-23T09:15:24.155Z,3.35
2022-10-23T09:20:50.278Z,2.58
2022-10-23T09:26:17.504Z,6.13
2022-10-23T09:31:51.459Z,5.22
2022-10-23T09:37:23.237Z,12.88
2022-10-23T09:42:59.254Z,6.35
2022-10-23T09:48:25.095Z,7.75
2022-10-23T09:53:53.483Z,7.85
2022-10-23T09:59:25.016Z,4.45
2022-10-23T10:04:54.664Z,4.22
2022-10-23T10:10:19.627Z,5.65
2022-10-23T10:15:51.500Z,6.10
2022-10-23T10:21:22.317Z,7.32
2022-10-23T10:26:58.975Z,2.35
2022-10-23T10:32:36.852Z,3.25
2022-10-23T10:38:21.307Z,3.50
2022-10-23T10:43:53.168Z,5.82
2022-10-23T10:49:24.211Z,6.82
2022-10-23T10:55:13.952Z,4.30
2022-10-23T11:00:38.576Z,5.45
2022-10-23T11:06:05.806Z,3.28
2022-10-23T11:11:37.265Z,4.07
2022-10-23T11:17:09.300Z,3.70
2022-10-23T11:22:38.625Z,3.90
2022-10-23T11:28:19.889Z,3.20
2022-10-23T11:34:07.985Z,6.35
2022-10-23T11:39:37.142Z,6.03
2022-10-23T11:45:32.239Z,5.90
2022-10-23T11:50:59.045Z,7.50
2022-10-23T11:56:28.069Z,5.60
2022-10-23T12:01:58.129Z,5.18
2022-10-23T12:07:25.893Z,5.72
2022-10-23T12:12:57.694Z,8.15
2022-10-23T12:18:24.188Z,5.43
2022-10-23T12:24:09.173Z,6.93
2022-10-23T12:29:44.769Z,9.82
2022-10-23T12:35:25.732Z,5.60
2022-10-23T12:40:53.726Z,9.50
2022-10-23T12:46:32.623Z,10.55
2022-10-23T12:52:01.052Z,6.28
2022-10-23T12:57:30.206Z,9.50
2022-10-23T13:03:03.409Z,13.43
2022-10-23T13:08:35.278Z,10.75
2022-10-23T13:14:33.160Z,12.05
2022-10-23T13:19:57.331Z,9.95
2022-10-23T13:25:25.066Z,11.30
2022-10-23T13:31:03.026Z,13.93
2022-10-23T13:36:31.266Z,8.88
2022-10-23T13:42:03.057Z,8.95
2022-10-23T13:47:28.545Z,7.32
2022-10-23T13:52:53.537Z,6.15
2022-10-23T13:58:20.051Z,8.07
2022-10-23T14:03:44.960Z,5.88
2022-10-23T14:09:12.957Z,7.55
2022-10-23T14:14:39.179Z,5.15
2022-10-23T14:20:06.052Z,6.32
2022-10-23T14:25:30.139Z,11.48
2022-10-23T14:30:55.810Z,7.85
2022-10-23T14:36:20.823Z,5.70
2022-10-23T14:41:45.485Z,5.78
2022-10-23T14:47:11.563Z,8.27
2022-10-23T14:52:36.711Z,5.78
2022-10-23T14:58:01.506Z,5.82
2022-10-23T15:03:27.470Z,8.60
2022-10-23T15:08:52.245Z,5.55
2022-10-23T15:14:17.526Z,8.73
2022-10-23T15:19:44.515Z,5.93
2022-10-23T15:25:14.262Z,5.30
2022-10-23T15:30:43.486Z,8.30
2022-10-23T15:36:09.761Z,6.45
2022-10-23T15:41:37.985Z,6.82
2022-10-23T15:47:02.764Z,4.60
2022-10-23T15:52:29.553Z,7.35
2022-10-23T15:57:59.107Z,5.32
2022-10-23T16:03:23.597Z,6.45
2022-10-23T16:08:49.741Z,4.40
2022-10-23T16:14:16.506Z,5.38
2022-10-23T16:19:41.993Z,4.60
2022-10-23T16:25:09.179Z,10.38
2022-10-23T16:30:34.434Z,4.65
2022-10-23T16:36:04.120Z,7.68
2022-10-23T16:41:30.818Z,7.28
2022-10-23T16:47:00.150Z,6.80
2022-10-23T16:52:25.406Z,6.35
2022-10-23T16:57:51.543Z,10.57
2022-10-23T17:03:16.407Z,7.65
2022-10-23T17:08:41.712Z,6.72
2022-10-23T17:14:09.696Z,30.33
2022-10-23T17:19:49.790Z,19.65
2022-10-23T17:25:15.416Z,16.33
2022-10-23T17:30:41.148Z,12.27
2022-10-23T17:36:06.076Z,8.68
2022-10-23T17:41:30.016Z,13.13
2022-10-23T17:46:56.876Z,16.85
2022-10-23T17:52:20.872Z,17.90
2022-10-23T17:57:45.530Z,19.17
2022-10-23T18:03:15.463Z,30.10
2022-10-23T18:08:44.866Z,23.65
2022-10-23T18:14:09.469Z,13.23
2022-10-23T18:19:36.505Z,17.38
2022-10-23T18:25:01.045Z,14.55
2022-10-23T18:30:25.107Z,15.98
2022-10-23T18:35:51.525Z,13.93
2022-10-23T18:41:18.053Z,12.75
2022-10-23T18:46:42.049Z,10.73
2022-10-23T18:52:07.532Z,11.65
2022-10-23T18:57:32.479Z,11.68
2022-10-23T19:02:56.416Z,13.05
2022-10-23T19:08:21.939Z,16.00
2022-10-23T19:13:47.123Z,13.40
2022-10-23T19:19:16.375Z,13.60
2022-10-23T19:24:46.658Z,17.58
2022-10-23T19:30:13.723Z,19.77
2022-10-23T19:35:38.139Z,23.67
2022-10-23T19:41:04.839Z,23.27
2022-10-23T19:46:31.921Z,31.83
2022-10-23T19:51:57.091Z,34.88
2022-10-23T19:57:27.255Z,23.60
2022-10-23T20:02:55.168Z,21.35
2022-10-23T20:08:24.637Z,23.20
2022-10-23T20:13:51.449Z,23.35
2022-10-23T20:24:47.365Z,21.63
2022-10-23T20:30:13.500Z,21.15
2022-10-23T20:35:41.742Z,21.35
2022-10-23T20:41:07.503Z,20.13
2022-10-23T20:46:35.136Z,18.58
2022-10-23T20:51:59.933Z,18.52
2022-10-23T20:57:24.283Z,17.15
2022-10-23T21:02:52.533Z,14.80
2022-10-23T21:08:17.449Z,11.93
2022-10-23T21:13:43.069Z,13.50
2022-10-23T21:19:11.770Z,17.23
2022-10-23T21:24:35.669Z,11.38
2022-10-23T21:30:00.114Z,9.95
2022-10-23T21:35:29.284Z,9.88
2022-10-23T21:40:53.966Z,11.63
2022-10-23T21:46:21.786Z,12.38
2022-10-23T21:51:47.963Z,11.55
2022-10-23T21:57:14.371Z,13.23
2022-10-23T22:02:38.884Z,10.55
2022-10-23T22:08:05.247Z,9.95
2022-10-23T22:13:29.849Z,12.50
2022-10-23T22:18:54.137Z,9.05
2022-10-23T22:24:20.420Z,9.48
2022-10-23T22:29:45.964Z,8.93
2022-10-23T22:35:10.589Z,10.93
2022-10-23T22:40:41.884Z,9.13
2022-10-23T22:46:10.142Z,9.63
2022-10-23T22:51:34.433Z,8.85
2022-10-23T22:57:00.036Z,10.40
2022-10-23T23:02:24.207Z,8.38
2022-10-23T23:07:49.200Z,9.73
2022-10-23T23:13:14.878Z,9.18
2022-10-23T23:18:39.260Z,12.95
2022-10-23T23:24:03.195Z,9.50
2022-10-23T23:29:29.647Z,7.53
2022-10-23T23:35:00.214Z,7.28
2022-10-23T23:40:24.338Z,9.18
2022-10-23T23:45:49.956Z,8.32
2022-10-23T23:51:14.494Z,10.32
2022-10-23T23:56:38.465Z,7.07
